Time;durP1;ratioP1;P1;durP2;ratioP2;P2;SDS_P1;SDS_P2;PMS_P1;PMS_P2;Temp;Humidity;BMP_temperature;BMP_pressure;BME280_temperature;BME280_humidity;BME280_pressure;Samples;Min_cycle;Max_cycle;Signal;HPM_P1;HPM_P2
2021/08/16 00:07:12;;;;;;;5.22;1.15;;;18.10;99.90;;;;;;20392372;28;20347;-82
2021/08/16 00:17:13;;;;;;;7.30;1.35;;;18.20;99.90;;;;;;20400853;28;20224;-82
2021/08/16 00:27:14;;;;;;;9.35;2.28;;;18.20;99.90;;;;;;20417437;28;20057;-82
2021/08/16 00:37:15;;;;;;;11.35;1.40;;;18.20;99.90;;;;;;20416579;28;20054;-82
2021/08/16 00:47:18;;;;;;;5.85;1.00;;;18.30;99.90;;;;;;20434757;28;20042;-81
2021/08/16 00:57:19;;;;;;;7.57;2.05;;;18.30;99.90;;;;;;20432085;28;20142;-82
2021/08/16 01:07:20;;;;;;;2.35;0.57;;;18.10;99.90;;;;;;20377488;28;20566;-82
2021/08/16 01:17:21;;;;;;;2.78;0.90;;;18.30;99.90;;;;;;20341136;28;20066;-81
2021/08/16 01:27:22;;;;;;;3.70;1.00;;;18.40;99.90;;;;;;20379928;28;20031;-82
2021/08/16 01:37:23;;;;;;;5.63;1.05;;;18.50;99.90;;;;;;20387820;28;20044;-81
2021/08/16 01:47:24;;;;;;;4.00;1.33;;;18.50;99.90;;;;;;20384220;28;20032;-82
2021/08/16 01:57:25;;;;;;;3.65;0.80;;;18.50;99.90;;;;;;20404606;28;20879;-82
2021/08/16 02:07:27;;;;;;;7.88;1.10;;;18.50;99.90;;;;;;20405849;28;20045;-82
2021/08/16 02:17:28;;;;;;;3.15;0.70;;;18.40;99.90;;;;;;20427155;28;20053;-82
2021/08/16 02:27:30;;;;;;;1.83;0.40;;;18.50;99.90;;;;;;20439825;28;20039;-82
2021/08/16 02:37:31;;;;;;;4.38;1.08;;;18.50;99.90;;;;;;20434835;28;20056;-82
2021/08/16 02:47:34;;;;;;;3.70;0.93;;;18.40;99.90;;;;;;20378687;28;20051;-82
2021/08/16 02:57:36;;;;;;;1.75;0.85;;;18.50;99.90;;;;;;20427590;28;20047;-82
2021/08/16 03:07:38;;;;;;;3.45;0.77;;;18.60;99.90;;;;;;20412116;28;20036;-81
2021/08/16 03:17:39;;;;;;;6.38;0.70;;;18.60;99.90;;;;;;20404361;28;20051;-82
2021/08/16 03:27:40;;;;;;;1.92;0.65;;;18.50;99.90;;;;;;20392333;28;20043;-82
2021/08/16 03:37:42;;;;;;;5.97;0.90;;;18.50;99.90;;;;;;20325603;28;20043;-82
2021/08/16 03:47:43;;;;;;;2.72;0.52;;;18.50;99.90;;;;;;20346857;28;20044;-82
2021/08/16 03:57:44;;;;;;;2.83;0.80;;;18.60;99.90;;;;;;20367033;28;20047;-82
2021/08/16 04:07:46;;;;;;;6.15;1.42;;;18.40;99.90;;;;;;20423488;28;20054;-82
2021/08/16 04:17:47;;;;;;;6.38;0.70;;;18.40;99.90;;;;;;20378327;28;20816;-82
2021/08/16 04:27:49;;;;;;;5.55;0.50;;;18.50;99.90;;;;;;20320792;28;20042;-82
2021/08/16 04:37:50;;;;;;;1.88;0.93;;;18.20;99.90;;;;;;20368860;28;20081;-82
2021/08/16 04:47:51;;;;;;;3.50;0.80;;;18.00;99.90;;;;;;20357737;28;20039;-81
2021/08/16 04:57:52;;;;;;;4.53;1.02;;;17.90;99.90;;;;;;20407593;28;20850;-82
2021/08/16 05:08:00;;;;;;;15.52;2.05;;;17.80;99.90;;;;;;20423293;28;20043;-83
2021/08/16 05:18:03;;;;;;;2.00;0.65;;;17.60;99.90;;;;;;20377765;28;20055;-82
2021/08/16 05:28:04;;;;;;;1.25;0.80;;;17.10;99.90;;;;;;20354276;28;20048;-83
2021/08/16 05:38:05;;;;;;;2.70;0.70;;;16.80;99.90;;;;;;20329988;28;20054;-82
2021/08/16 05:48:06;;;;;;;4.38;0.68;;;16.80;99.90;;;;;;20317039;28;20051;-82
2021/08/16 05:58:07;;;;;;;2.10;0.45;;;16.80;99.90;;;;;;20414949;28;20048;-81
2021/08/16 06:08:08;;;;;;;1.50;0.63;;;16.70;99.90;;;;;;20409999;28;20141;-81
2021/08/16 06:18:09;;;;;;;7.70;0.98;;;16.70;99.90;;;;;;20382413;28;20040;-81
2021/08/16 06:28:10;;;;;;;2.42;0.65;;;16.80;99.90;;;;;;20369514;28;20043;-82
2021/08/16 06:38:21;;;;;;;1.92;1.00;;;16.70;99.90;;;;;;20368272;28;20051;-81
2021/08/16 06:48:23;;;;;;;2.80;0.93;;;16.80;99.90;;;;;;20387090;28;20047;-81
2021/08/16 06:58:25;;;;;;;3.53;1.00;;;16.70;99.90;;;;;;20416668;28;20079;-80
2021/08/16 07:08:26;;;;;;;2.10;0.88;;;16.60;99.90;;;;;;20410338;28;20048;-81
2021/08/16 07:18:28;;;;;;;1.60;0.80;;;16.60;99.90;;;;;;20362363;28;20036;-80
2021/08/16 07:28:30;;;;;;;1.80;0.82;;;16.30;99.90;;;;;;20312612;28;20051;-80
2021/08/16 07:38:31;;;;;;;2.00;1.00;;;16.20;99.90;;;;;;20423258;28;20051;-80
2021/08/16 07:48:32;;;;;;;4.65;1.02;;;16.10;99.90;;;;;;20409192;28;20518;-81
2021/08/16 07:58:33;;;;;;;6.80;2.83;;;16.00;99.90;;;;;;20430272;28;20055;-81
2021/08/16 08:08:36;;;;;;;2.22;0.90;;;16.00;99.90;;;;;;20407855;28;20049;-81
2021/08/16 08:18:37;;;;;;;2.20;1.27;;;16.10;99.90;;;;;;20386420;28;20052;-80
2021/08/16 08:28:38;;;;;;;2.20;0.80;;;16.20;99.90;;;;;;20328332;28;20054;-81
2021/08/16 08:38:39;;;;;;;4.13;1.30;;;16.30;99.90;;;;;;20405949;28;20048;-80
2021/08/16 08:48:40;;;;;;;2.95;1.52;;;16.60;99.90;;;;;;20262486;28;20044;-81
2021/08/16 08:58:41;;;;;;;5.03;1.10;;;16.80;99.90;;;;;;20361625;28;20467;-81
2021/08/16 09:08:43;;;;;;;10.15;1.58;;;16.90;99.90;;;;;;20379707;28;20404;-80
2021/08/16 09:18:46;;;;;;;3.20;0.85;;;16.70;99.90;;;;;;20404591;28;20040;-80
2021/08/16 09:28:47;;;;;;;6.40;1.85;;;16.70;99.90;;;;;;20416692;28;20472;-80
2021/08/16 09:38:49;;;;;;;3.60;1.25;;;16.80;99.90;;;;;;20398070;28;20035;-80
2021/08/16 09:48:59;;;;;;;4.40;1.40;;;17.10;99.90;;;;;;20398132;28;20110;-80
2021/08/16 09:59:00;;;;;;;2.58;0.77;;;17.40;99.90;;;;;;20419263;28;20051;-80
2021/08/16 10:09:01;;;;;;;2.70;0.77;;;17.90;99.90;;;;;;20399789;28;20376;-80
2021/08/16 10:19:07;;;;;;;2.92;0.98;;;17.90;99.90;;;;;;20358099;28;20060;-81
2021/08/16 10:29:10;;;;;;;3.00;1.33;;;17.80;99.90;;;;;;20370262;28;20043;-81
2021/08/16 10:39:11;;;;;;;2.63;1.05;;;18.10;99.90;;;;;;20393720;28;20055;-80
2021/08/16 10:49:15;;;;;;;6.07;0.80;;;18.40;99.90;;;;;;20420149;28;20402;-80
2021/08/16 10:59:21;;;;;;;3.40;1.17;;;17.80;99.90;;;;;;20411201;28;20044;-79
2021/08/16 11:09:27;;;;;;;0.95;0.45;;;17.80;99.90;;;;;;20384866;28;20037;-81
2021/08/16 11:19:48;;;;;;;4.63;0.80;;;16.60;99.90;;;;;;20341725;28;20047;-80
2021/08/16 11:30:10;;;;;;;4.70;0.60;;;15.80;99.90;;;;;;20439152;28;20032;-81
2021/08/16 11:40:12;;;;;;;5.70;1.60;;;15.80;99.90;;;;;;20389906;28;20039;-80
2021/08/16 11:50:16;;;;;;;3.03;1.08;;;16.10;99.90;;;;;;20372362;28;20048;-81
2021/08/16 12:00:25;;;;;;;6.05;0.80;;;15.90;99.90;;;;;;20345604;28;20824;-80
2021/08/16 12:10:27;;;;;;;7.57;1.05;;;16.30;99.90;;;;;;20394963;28;20035;-81
2021/08/16 12:20:41;;;;;;;3.60;0.93;;;16.40;99.90;;;;;;20358481;28;20063;-80
2021/08/16 12:30:42;;;;;;;3.60;0.95;;;16.50;99.90;;;;;;20355808;28;20045;-80
2021/08/16 12:40:44;;;;;;;3.17;0.93;;;16.70;99.90;;;;;;20329428;28;20044;-80
2021/08/16 12:50:45;;;;;;;1.00;0.30;;;16.60;99.90;;;;;;20364049;28;20047;-80
2021/08/16 13:00:46;;;;;;;5.63;1.10;;;16.80;99.90;;;;;;20306038;28;20052;-80
2021/08/16 13:10:47;;;;;;;2.50;0.50;;;16.70;99.90;;;;;;20324753;28;20562;-80
2021/08/16 13:20:49;;;;;;;2.08;0.68;;;16.70;99.90;;;;;;20320610;28;20047;-80
2021/08/16 13:30:51;;;;;;;5.00;0.82;;;16.80;99.90;;;;;;20340612;28;20517;-80
2021/08/16 13:40:54;;;;;;;3.13;1.00;;;17.30;99.90;;;;;;20277570;28;20049;-79
2021/08/16 13:50:57;;;;;;;2.13;0.57;;;17.60;99.90;;;;;;20393357;28;20515;-80
2021/08/16 14:00:58;;;;;;;1.65;0.65;;;17.50;99.90;;;;;;20352381;28;20051;-80
2021/08/16 14:11:01;;;;;;;3.78;0.57;;;17.50;99.90;;;;;;20334307;28;20504;-80
2021/08/16 14:21:06;;;;;;;3.33;0.70;;;17.60;99.90;;;;;;20352638;28;20052;-81
2021/08/16 14:31:07;;;;;;;9.85;0.95;;;17.60;99.90;;;;;;20394470;28;20039;-80
2021/08/16 14:41:08;;;;;;;2.20;0.55;;;17.60;99.90;;;;;;20401519;28;20064;-80
2021/08/16 14:51:10;;;;;;;3.92;0.63;;;17.90;99.90;;;;;;20431727;28;20046;-80
2021/08/16 15:01:11;;;;;;;1.20;0.28;;;18.10;99.90;;;;;;20430515;28;20051;-80
2021/08/16 15:11:12;;;;;;;4.38;0.47;;;17.50;99.90;;;;;;20414483;28;20893;-80
2021/08/16 15:21:14;;;;;;;2.00;0.50;;;17.20;99.90;;;;;;20481151;28;20040;-79
2021/08/16 15:31:15;;;;;;;0.90;0.22;;;17.40;99.90;;;;;;20348913;28;20043;-79
2021/08/16 15:41:16;;;;;;;1.48;0.32;;;17.80;99.90;;;;;;20332857;28;20370;-79
2021/08/16 15:51:20;;;;;;;2.78;0.32;;;18.00;99.90;;;;;;20312674;28;20047;-80
2021/08/16 16:01:21;;;;;;;4.97;0.75;;;18.10;99.90;;;;;;20404163;28;20039;-80
2021/08/16 16:11:23;;;;;;;1.15;0.40;;;17.60;99.90;;;;;;20361534;28;20131;-80
2021/08/16 16:21:24;;;;;;;7.07;0.65;;;17.20;99.90;;;;;;20305812;28;20051;-80
2021/08/16 16:31:26;;;;;;;1.98;0.47;;;17.40;99.90;;;;;;20371029;28;20035;-80
2021/08/16 16:41:27;;;;;;;3.03;1.00;;;17.30;99.90;;;;;;20411341;28;20176;-80
2021/08/16 16:51:29;;;;;;;3.67;0.60;;;17.10;99.90;;;;;;20382929;28;20064;-81
2021/08/16 17:01:32;;;;;;;3.50;1.25;;;16.90;99.90;;;;;;20387451;28;20055;-81
2021/08/16 17:11:34;;;;;;;0.93;0.40;;;16.70;99.90;;;;;;20413309;28;20118;-79
2021/08/16 17:21:38;;;;;;;7.18;0.30;;;16.60;99.90;;;;;;20400863;28;20139;-82
2021/08/16 17:31:39;;;;;;;1.05;0.73;;;16.40;99.90;;;;;;20372994;28;20407;-79
2021/08/16 17:41:41;;;;;;;3.33;0.30;;;16.20;99.90;;;;;;20399528;28;20108;-80
2021/08/16 17:51:45;;;;;;;1.13;0.40;;;16.00;99.90;;;;;;20343873;28;20040;-80
2021/08/16 18:01:46;;;;;;;2.80;0.50;;;16.00;99.90;;;;;;20330576;29;20052;-79
2021/08/16 18:11:47;;;;;;;4.13;0.40;;;15.80;99.90;;;;;;20301023;28;20036;-79
2021/08/16 18:21:48;;;;;;;1.65;0.40;;;15.70;99.90;;;;;;20408791;28;20055;-79
2021/08/16 18:31:50;;;;;;;0.45;0.20;;;15.60;99.90;;;;;;20427361;28;20046;-79
2021/08/16 18:41:51;;;;;;;2.95;0.30;;;15.60;99.90;;;;;;20409856;28;20051;-81
2021/08/16 18:51:52;;;;;;;14.25;1.30;;;15.50;99.90;;;;;;20393140;28;20035;-79
2021/08/16 19:01:53;;;;;;;3.35;0.43;;;15.30;99.90;;;;;;20439443;28;20059;-81
2021/08/16 19:11:54;;;;;;;2.53;0.55;;;15.30;99.90;;;;;;20378902;28;20051;-80
2021/08/16 19:21:55;;;;;;;1.80;0.50;;;15.30;99.90;;;;;;20416196;28;20411;-80
2021/08/16 19:31:57;;;;;;;4.78;0.60;;;15.40;99.90;;;;;;20432883;28;20065;-79
2021/08/16 19:41:58;;;;;;;2.15;0.35;;;15.40;99.90;;;;;;20426534;28;20174;-80
2021/08/16 19:52:01;;;;;;;3.92;1.42;;;15.30;99.90;;;;;;20337722;28;20039;-79
2021/08/16 20:02:05;;;;;;;8.77;0.55;;;15.40;99.90;;;;;;20329825;28;21423;-80
2021/08/16 20:12:07;;;;;;;2.05;0.43;;;15.40;99.90;;;;;;20335992;28;20388;-80
2021/08/16 20:22:08;;;;;;;2.58;0.68;;;15.30;99.90;;;;;;20318201;28;20052;-80
2021/08/16 20:32:09;;;;;;;1.90;0.30;;;15.10;99.90;;;;;;20306440;28;20073;-80
2021/08/16 20:42:10;;;;;;;1.40;0.95;;;15.00;99.90;;;;;;20380954;28;20526;-79
2021/08/16 20:52:11;;;;;;;1.25;0.38;;;14.90;99.90;;;;;;20348457;28;20039;-80
2021/08/16 21:02:12;;;;;;;3.25;0.38;;;14.90;99.90;;;;;;20386836;28;20040;-79
2021/08/16 21:12:14;;;;;;;4.95;0.75;;;14.90;99.90;;;;;;20307010;28;20050;-80
2021/08/16 21:22:18;;;;;;;5.82;1.58;;;14.80;99.90;;;;;;20432721;28;20046;-81
2021/08/16 21:32:19;;;;;;;4.95;0.60;;;14.70;99.90;;;;;;20410472;28;20491;-81
2021/08/16 21:42:20;;;;;;;3.50;0.40;;;14.60;99.90;;;;;;20391723;28;20068;-80
2021/08/16 21:52:21;;;;;;;3.80;0.95;;;14.40;99.90;;;;;;20419895;28;20045;-80
2021/08/16 22:02:22;;;;;;;2.42;0.30;;;14.40;99.90;;;;;;20397319;28;20062;-80
2021/08/16 22:12:24;;;;;;;1.30;0.40;;;14.40;99.90;;;;;;20369941;28;20036;-80
2021/08/16 22:22:25;;;;;;;6.20;0.93;;;14.30;99.90;;;;;;20362433;28;20052;-80
2021/08/16 22:32:26;;;;;;;1.70;0.55;;;14.30;99.90;;;;;;20433844;28;20493;-81
2021/08/16 22:42:27;;;;;;;7.55;0.55;;;14.10;99.90;;;;;;20401353;28;20051;-80
2021/08/16 22:52:33;;;;;;;7.03;0.60;;;14.00;99.90;;;;;;20478203;28;20069;-81
2021/08/16 23:02:34;;;;;;;1.55;0.63;;;13.90;99.90;;;;;;20462333;28;20063;-80
2021/08/16 23:12:36;;;;;;;4.93;1.05;;;13.80;99.90;;;;;;20453747;28;20071;-81
2021/08/16 23:22:37;;;;;;;1.60;0.50;;;13.80;99.90;;;;;;20454241;28;20039;-79
2021/08/16 23:32:38;;;;;;;9.82;1.60;;;13.90;99.90;;;;;;20381939;28;20499;-79
2021/08/16 23:42:40;;;;;;;1.20;0.40;;;13.80;99.90;;;;;;20329310;28;20526;-80
2021/08/16 23:52:41;;;;;;;0.63;0.30;;;13.80;99.90;;;;;;20402500;28;20432;-79
